createdAt,value
2022-12-18T00:00:09.475Z,100463.33
2022-12-18T00:02:14.078Z,100465.22
2022-12-18T00:03:14.890Z,100465.79
2022-12-18T00:04:22.030Z,100462.47
2022-12-18T00:05:18.811Z,100467.83
2022-12-18T00:06:19.437Z,100466.52
2022-12-18T00:07:18.853Z,100466.53
2022-12-18T00:08:19.460Z,100467
2022-12-18T00:09:19.374Z,100464.64
2022-12-18T00:10:18.854Z,100465.34
2022-12-18T00:11:20.428Z,100469.53
2022-12-18T00:13:18.898Z,100468.69
2022-12-18T00:14:18.909Z,100466.94
2022-12-18T00:15:18.992Z,100467.8
2022-12-18T00:16:20.767Z,100465.88
2022-12-18T00:17:18.986Z,100468.46
2022-12-18T00:18:20.640Z,100465.75
2022-12-18T00:19:18.980Z,100470.38
2022-12-18T00:20:18.994Z,100470.2
2022-12-18T00:21:19.432Z,100471.82
2022-12-18T00:22:19.036Z,100475.3
2022-12-18T00:23:19.036Z,100470.33
2022-12-18T00:24:19.087Z,100469.17
2022-12-18T00:25:19.168Z,100470.09
2022-12-18T00:26:26.377Z,100468.25
2022-12-18T00:27:22.646Z,100462.75
2022-12-18T00:28:22.596Z,100463.67
2022-12-18T00:29:22.617Z,100463.64
2022-12-18T00:30:22.614Z,100463.05
2022-12-18T00:31:24.123Z,100463.83
2022-12-18T00:32:22.712Z,100465.58
2022-12-18T00:33:22.674Z,100469.11
2022-12-18T00:34:22.755Z,100471.55
2022-12-18T00:35:22.680Z,100472.26
2022-12-18T00:36:23.957Z,100471.55
2022-12-18T00:37:22.744Z,100470.72
2022-12-18T00:38:22.723Z,100470.08
2022-12-18T00:39:22.703Z,100479.22
2022-12-18T00:40:22.741Z,100475.73
2022-12-18T00:41:22.858Z,100481.57
2022-12-18T00:42:22.791Z,100479.8
2022-12-18T00:43:22.838Z,100477.39
2022-12-18T00:44:22.813Z,100485.48
2022-12-18T00:45:26.843Z,100488.52
2022-12-18T00:46:23.089Z,100487.42
2022-12-18T00:47:23.102Z,100487.16
2022-12-18T00:48:23.187Z,100482.63
2022-12-18T00:49:23.124Z,100485.02
2022-12-18T00:50:24.500Z,100492.08
2022-12-18T00:51:23.319Z,100494.01
2022-12-18T00:52:23.157Z,100489.35
2022-12-18T00:53:23.271Z,100489.45
2022-12-18T00:54:23.348Z,100492.69
2022-12-18T00:55:23.201Z,100488.4
2022-12-18T00:56:23.755Z,100491.87
2022-12-18T00:57:23.221Z,100493.47
2022-12-18T00:58:23.241Z,100491.09
2022-12-18T00:59:23.306Z,100486.95
2022-12-18T01:00:23.501Z,100480.3
2022-12-18T01:01:23.446Z,100478.8
2022-12-18T01:02:23.389Z,100479.89
2022-12-18T01:03:23.349Z,100482.97
2022-12-18T01:04:23.373Z,100481.41
2022-12-18T01:05:23.330Z,100482.84
2022-12-18T01:06:23.365Z,100486.14
2022-12-18T01:07:23.441Z,100484.33
2022-12-18T01:08:23.447Z,100482.39
2022-12-18T01:09:23.419Z,100481.83
2022-12-18T01:10:24.487Z,100483.42
2022-12-18T01:11:23.701Z,100487.06
2022-12-18T01:12:23.435Z,100483.52
2022-12-18T01:13:23.444Z,100479.86
2022-12-18T01:14:23.489Z,100480.19
2022-12-18T01:15:23.491Z,100480.2
2022-12-18T01:16:23.696Z,100484.07
2022-12-18T01:17:23.521Z,100482.22
2022-12-18T01:18:23.499Z,100483.9
2022-12-18T01:19:23.596Z,100486.54
2022-12-18T01:20:23.543Z,100489.5
2022-12-18T01:21:23.741Z,100491.39
2022-12-18T01:22:23.549Z,100487.7
2022-12-18T01:23:23.584Z,100486.25
2022-12-18T01:24:23.907Z,100484.17
2022-12-18T01:25:23.621Z,100485.65
2022-12-18T01:26:24.376Z,100487.39
2022-12-18T01:27:23.637Z,100482.93
2022-12-18T01:28:23.651Z,100488.91
2022-12-18T01:29:23.799Z,100489.78
2022-12-18T01:30:23.717Z,100490.63
2022-12-18T01:31:25.681Z,100494.72
2022-12-18T01:32:23.719Z,100494.49
2022-12-18T01:33:23.717Z,100490.45
2022-12-18T01:34:24.016Z,100498.02
2022-12-18T01:35:23.792Z,100502.14
2022-12-18T01:36:25.104Z,100499.62
2022-12-18T01:37:23.766Z,100500.8
2022-12-18T01:38:23.782Z,100502.77
2022-12-18T01:39:23.966Z,100503.28
2022-12-18T01:40:24.411Z,100504.43
2022-12-18T01:41:25.239Z,100504.12
2022-12-18T01:42:23.819Z,100500.47
2022-12-18T01:45:30.112Z,100500.95
2022-12-18T01:46:28.628Z,100506.08
2022-12-18T01:47:39.122Z,100500.75
2022-12-18T01:48:30.785Z,100501.62
2022-12-18T01:49:30.780Z,100501.64
2022-12-18T01:50:36.785Z,100500.17
2022-12-18T01:51:33.670Z,100498.09
2022-12-18T01:52:34.325Z,100499.98
2022-12-18T01:53:33.517Z,100496.38
2022-12-18T01:54:33.493Z,100501.33
2022-12-18T01:55:38.435Z,100497.65
2022-12-18T01:56:35.135Z,100494.62
2022-12-18T01:57:35.466Z,100491.77
2022-12-18T01:59:37.722Z,100496.31
2022-12-18T02:00:37.098Z,100499.25
2022-12-18T02:01:37.593Z,100497.74
2022-12-18T02:02:37.489Z,100496.53
2022-12-18T02:03:37.605Z,100501.66
2022-12-18T02:04:37.128Z,100496.61
2022-12-18T02:06:41.522Z,100498.82
2022-12-18T02:09:49.345Z,100500.98
2022-12-18T02:10:53.954Z,100500.83
2022-12-18T02:15:03.921Z,100501.71
2022-12-18T02:18:08.711Z,100495.9
2022-12-18T02:22:21.700Z,100497.7
2022-12-18T02:27:25.730Z,100509.46
2022-12-18T02:28:29.097Z,100503.39
2022-12-18T02:29:29.506Z,100505.58
2022-12-18T02:30:27.025Z,100510.48
2022-12-18T02:31:28.357Z,100509.08
2022-12-18T02:32:31.083Z,100512.09
2022-12-18T02:33:28.626Z,100511.7
2022-12-18T02:34:29.694Z,100508.99
2022-12-18T02:35:30.497Z,100510.78
2022-12-18T02:36:28.759Z,100511.19
2022-12-18T02:37:28.639Z,100512.12
2022-12-18T02:38:28.157Z,100511.16
2022-12-18T02:39:30.062Z,100512.8
2022-12-18T02:40:28.264Z,100515.3
2022-12-18T02:41:27.604Z,100519.46
2022-12-18T02:42:28.803Z,100520.22
2022-12-18T02:43:27.452Z,100516.05
2022-12-18T02:44:27.674Z,100517.23
2022-12-18T02:45:27.631Z,100522.16
2022-12-18T02:46:35.380Z,100521.36
2022-12-18T02:47:33.630Z,100523.86
2022-12-18T02:48:33.457Z,100524.44
2022-12-18T02:50:36.598Z,100522.72
2022-12-18T02:52:42.838Z,100523.38
2022-12-18T02:53:46.306Z,100524.12
2022-12-18T02:56:48.941Z,100529.72
2022-12-18T02:57:54.990Z,100529.55
2022-12-18T02:59:57.287Z,100525.16
2022-12-18T03:00:52.347Z,100529.41
2022-12-18T03:03:56.270Z,100533.38
2022-12-18T03:05:05.980Z,100529.48
2022-12-18T03:06:00.981Z,100531.81
2022-12-18T03:07:04.188Z,100528.8
2022-12-18T03:08:04.384Z,100523.94
2022-12-18T03:09:03.622Z,100525.45
2022-12-18T03:10:01.462Z,100526.21
2022-12-18T03:11:05.860Z,100525.02
2022-12-18T03:12:10.374Z,100523.7
2022-12-18T03:13:09.572Z,100521.69
2022-12-18T03:14:08.299Z,100527.11
2022-12-18T03:15:17.450Z,100527.33
2022-12-18T03:16:11.726Z,100523.25
2022-12-18T03:17:19.509Z,100525.99
2022-12-18T03:18:14.015Z,100526.38
2022-12-18T03:19:15.016Z,100524.63
2022-12-18T03:20:15.152Z,100527.7
2022-12-18T03:21:12.965Z,100524.36
2022-12-18T03:22:12.258Z,100516.38
2022-12-18T03:23:13.815Z,100520.98
2022-12-18T03:24:12.103Z,100516.45
2022-12-18T03:25:13.823Z,100518.84
2022-12-18T03:26:15.368Z,100521.15
2022-12-18T03:27:13.840Z,100522.88
2022-12-18T03:28:15.511Z,100520.8
2022-12-18T03:29:20.642Z,100530.14
2022-12-18T03:30:13.576Z,100529.91
2022-12-18T03:31:13.755Z,100531.33
2022-12-18T03:32:15.725Z,100535.05
2022-12-18T03:33:22.443Z,100533.81
2022-12-18T03:34:16.037Z,100532.78
2022-12-18T03:35:15.646Z,100537.7
2022-12-18T03:36:14.514Z,100533.61
2022-12-18T03:37:14.432Z,100537.28
2022-12-18T03:38:14.351Z,100534.98
2022-12-18T03:39:14.411Z,100531.5
2022-12-18T03:40:14.339Z,100532.34
2022-12-18T03:41:21.022Z,100533.5
2022-12-18T03:42:24.934Z,100535.63
2022-12-18T03:43:27.440Z,100539.41
2022-12-18T03:44:33.737Z,100539.27
2022-12-18T03:45:37.414Z,100539.58
2022-12-18T03:46:42.830Z,100538.99
2022-12-18T03:51:45.885Z,100539.26
2022-12-18T03:54:52.125Z,100546.54
2022-12-18T03:55:52.341Z,100545.69
2022-12-18T03:56:55.756Z,100544.52
2022-12-18T03:57:53.012Z,100546.16
2022-12-18T03:58:53.590Z,100548.58
2022-12-18T03:59:56.558Z,100546.09
2022-12-18T04:00:55.348Z,100544.02
2022-12-18T04:01:54.312Z,100541.92
2022-12-18T04:02:55.123Z,100535.73
2022-12-18T04:03:53.681Z,100537.17
2022-12-18T04:04:54.340Z,100540.64
2022-12-18T04:05:55.373Z,100544.77
2022-12-18T04:06:53.363Z,100546.8
2022-12-18T04:07:54.299Z,100547.31
2022-12-18T04:08:53.873Z,100547.39
2022-12-18T04:09:56.681Z,100539.62
2022-12-18T04:10:53.446Z,100545.11
2022-12-18T04:11:53.513Z,100547.72
2022-12-18T04:12:56.638Z,100547.92
2022-12-18T04:13:56.563Z,100549.59
2022-12-18T04:14:53.440Z,100550.05
2022-12-18T04:15:53.508Z,100547.75
2022-12-18T04:16:53.494Z,100552.45
2022-12-18T04:17:53.486Z,100552.36
2022-12-18T04:18:53.925Z,100546.73
2022-12-18T04:19:53.454Z,100551.23
2022-12-18T04:20:53.502Z,100553.41
2022-12-18T04:21:53.679Z,100552.33
2022-12-18T04:22:53.663Z,100553.2
2022-12-18T04:23:53.540Z,100554.48
2022-12-18T04:24:53.599Z,100556.29
2022-12-18T04:25:53.618Z,100556.02
2022-12-18T04:26:53.707Z,100556.7
2022-12-18T04:27:53.669Z,100553.72
2022-12-18T04:28:53.714Z,100555.31
2022-12-18T04:29:53.651Z,100558.38
2022-12-18T04:30:53.766Z,100549.94
2022-12-18T04:31:53.692Z,100554.16
2022-12-18T04:32:53.866Z,100558.89
2022-12-18T04:33:53.717Z,100561.88
2022-12-18T04:34:53.746Z,100560.48
2022-12-18T04:35:53.746Z,100558.1
2022-12-18T04:36:53.776Z,100562.2
2022-12-18T04:37:53.843Z,100563.65
2022-12-18T04:38:53.844Z,100565.91
2022-12-18T04:39:53.839Z,100567.95
2022-12-18T04:40:53.828Z,100566.91
2022-12-18T04:41:53.819Z,100570.36
2022-12-18T04:42:54.011Z,100565.42
2022-12-18T04:43:53.918Z,100571.34
2022-12-18T04:44:53.910Z,100573.45
2022-12-18T04:45:53.895Z,100575.66
2022-12-18T04:46:54.010Z,100579.03
2022-12-18T04:47:54.010Z,100580.64
2022-12-18T04:48:53.960Z,100583.27
2022-12-18T04:49:53.966Z,100590.27
2022-12-18T04:50:53.999Z,100588.02
2022-12-18T04:51:54.341Z,100591.48
2022-12-18T04:52:54.369Z,100588.53
2022-12-18T04:53:54.465Z,100590.43
2022-12-18T04:54:54.074Z,100589.55
2022-12-18T04:56:55.262Z,100594.47
2022-12-18T04:57:55.621Z,100592.2
2022-12-18T04:58:55.289Z,100591.17
2022-12-18T04:59:55.319Z,100590.17
2022-12-18T05:00:55.335Z,100590.89
2022-12-18T05:01:55.468Z,100594.25
2022-12-18T05:02:55.556Z,100597.41
2022-12-18T05:03:55.478Z,100597.95
2022-12-18T05:04:55.377Z,100595.92
2022-12-18T05:05:55.409Z,100596.6
2022-12-18T05:06:55.413Z,100596.64
2022-12-18T05:07:55.439Z,100594.81
2022-12-18T05:08:55.530Z,100595.69
2022-12-18T05:09:55.655Z,100598.48
2022-12-18T05:11:59.352Z,100600.88
2022-12-18T05:13:01.139Z,100598.16
2022-12-18T05:13:59.419Z,100600.63
2022-12-18T05:14:59.400Z,100598.88
2022-12-18T05:15:59.468Z,100603.38
2022-12-18T05:17:01.164Z,100603.98
2022-12-18T05:17:59.856Z,100608.12
2022-12-18T05:18:59.486Z,100606.89
2022-12-18T05:19:59.480Z,100608.48
2022-12-18T05:20:59.492Z,100606.65
2022-12-18T05:21:59.504Z,100605.97
2022-12-18T05:22:59.518Z,100603.83
2022-12-18T05:23:59.587Z,100608.21
2022-12-18T05:24:59.529Z,100610.08
2022-12-18T05:26:00.751Z,100605.02
2022-12-18T05:26:59.893Z,100609.41
2022-12-18T05:27:59.580Z,100608.41
2022-12-18T05:28:59.629Z,100605.58
2022-12-18T05:29:59.601Z,100604.06
2022-12-18T05:31:00.735Z,100606.02
2022-12-18T05:31:59.636Z,100602.74
2022-12-18T05:32:59.680Z,100599.8
2022-12-18T05:33:59.703Z,100597.2
2022-12-18T05:34:59.708Z,100598.47
2022-12-18T05:36:00.719Z,100598.95
2022-12-18T05:36:59.767Z,100593.02
2022-12-18T05:37:59.759Z,100595.8
2022-12-18T05:38:59.774Z,100595.8
2022-12-18T05:39:59.882Z,100593.49
2022-12-18T05:40:59.878Z,100590.58
2022-12-18T05:41:59.812Z,100586.95
2022-12-18T05:42:59.836Z,100587.47
2022-12-18T05:44:00.247Z,100590.78
2022-12-18T05:44:59.909Z,100589.31
2022-12-18T05:46:03.701Z,100587.03
2022-12-18T05:46:59.954Z,100585.04
2022-12-18T05:47:59.925Z,100586.28
2022-12-18T05:49:00.759Z,100583.16
2022-12-18T05:49:59.984Z,100580.3
2022-12-18T05:52:01.454Z,100580.73
2022-12-18T05:53:01.438Z,100585.12
2022-12-18T05:54:01.479Z,100587.95
2022-12-18T05:55:01.484Z,100595.05
2022-12-18T05:56:02.564Z,100597.84
2022-12-18T05:57:01.512Z,100595.56
2022-12-18T05:58:01.762Z,100595.64
2022-12-18T05:59:02.036Z,100598.48
2022-12-18T06:00:02.226Z,100599.04
2022-12-18T06:02:04.052Z,100605.49
2022-12-18T06:03:03.891Z,100606.45
2022-12-18T06:04:03.965Z,100602.83
2022-12-18T06:05:04.162Z,100606.77
2022-12-18T06:06:04.011Z,100607.92
2022-12-18T06:07:03.799Z,100605.81
2022-12-18T06:08:04.008Z,100613.78
2022-12-18T06:09:04.076Z,100621.08
2022-12-18T06:10:04.192Z,100613.42
2022-12-18T06:11:03.982Z,100611.75
2022-12-18T06:12:04.092Z,100613.81
2022-12-18T06:13:03.900Z,100619.11
2022-12-18T06:14:04.567Z,100617.43
2022-12-18T06:15:04.158Z,100613.2
2022-12-18T06:16:04.935Z,100619.69
2022-12-18T06:17:03.970Z,100617.84
2022-12-18T06:18:04.163Z,100618.63
2022-12-18T06:19:04.795Z,100618.7
2022-12-18T06:20:04.542Z,100619.2
2022-12-18T06:21:04.199Z,100617.58
2022-12-18T06:22:04.257Z,100616.62
2022-12-18T06:23:04.049Z,100615.78
2022-12-18T06:24:04.281Z,100617.89
2022-12-18T06:25:04.354Z,100620.59
2022-12-18T06:26:08.078Z,100620.98
2022-12-18T06:27:04.668Z,100621.23
2022-12-18T06:28:04.479Z,100618.27
2022-12-18T06:29:04.289Z,100616.27
2022-12-18T06:30:04.735Z,100610.73
2022-12-18T06:31:04.994Z,100614.58
2022-12-18T06:32:04.628Z,100621.27
2022-12-18T06:33:04.587Z,100622.48
2022-12-18T06:34:05.483Z,100625.94
2022-12-18T06:35:04.865Z,100627.59
2022-12-18T06:36:08.744Z,100628.7
2022-12-18T06:37:04.954Z,100638.38
2022-12-18T06:38:05.035Z,100632.67
2022-12-18T06:39:04.985Z,100637.78
2022-12-18T06:40:05.574Z,100635.12
2022-12-18T06:41:11.864Z,100637.95
2022-12-18T06:42:08.079Z,100641.52
2022-12-18T06:43:08.161Z,100640.98
2022-12-18T06:44:08.123Z,100638.33
2022-12-18T06:45:08.659Z,100643.87
2022-12-18T06:46:09.151Z,100645.57
2022-12-18T06:47:08.190Z,100642.73
2022-12-18T06:48:08.368Z,100642.11
2022-12-18T06:49:08.185Z,100648.7
2022-12-18T06:50:08.367Z,100643.72
2022-12-18T06:51:08.229Z,100645.48
2022-12-18T06:52:08.259Z,100644.02
2022-12-18T06:53:08.277Z,100645.72
2022-12-18T06:54:08.263Z,100651.87
2022-12-18T06:55:08.444Z,100645.69
2022-12-18T06:56:10.658Z,100646.84
2022-12-18T06:57:08.402Z,100648.48
2022-12-18T06:58:08.424Z,100652.52
2022-12-18T06:59:08.360Z,100652.64
2022-12-18T07:00:08.720Z,100648.97
2022-12-18T07:01:10.581Z,100654.39
2022-12-18T07:02:11.570Z,100648.12
2022-12-18T07:03:08.832Z,100651.04
2022-12-18T07:04:08.461Z,100652.84
2022-12-18T07:05:10.930Z,100653.67
2022-12-18T07:06:14.826Z,100651.2
2022-12-18T07:07:11.056Z,100652.52
2022-12-18T07:08:11.093Z,100653.03
2022-12-18T07:09:11.079Z,100657.06
2022-12-18T07:10:11.073Z,100654.16
2022-12-18T07:11:11.362Z,100655.55
2022-12-18T07:12:11.126Z,100653.2
2022-12-18T07:13:11.238Z,100656.15
2022-12-18T07:14:11.182Z,100656.98
2022-12-18T07:15:11.297Z,100658.33
2022-12-18T07:16:19.654Z,100655.12
2022-12-18T07:17:12.333Z,100654.05
2022-12-18T07:18:12.312Z,100654.81
2022-12-18T07:19:12.288Z,100654.41
2022-12-18T07:20:12.289Z,100657.31
2022-12-18T07:21:13.630Z,100656.88
2022-12-18T07:22:12.354Z,100657.51
2022-12-18T07:23:12.432Z,100656.98
2022-12-18T07:24:12.381Z,100656.87
2022-12-18T07:25:12.358Z,100659.27
2022-12-18T07:26:13.705Z,100657.98
2022-12-18T07:27:12.505Z,100653.63
2022-12-18T07:28:17.182Z,100661.94
2022-12-18T07:29:13.867Z,100653.83
2022-12-18T07:30:13.947Z,100658.87
2022-12-18T07:31:15.376Z,100658.8
2022-12-18T07:32:14.164Z,100657.27
2022-12-18T07:33:13.911Z,100657.7
2022-12-18T07:34:14.955Z,100659.27
2022-12-18T07:35:13.911Z,100663.56
2022-12-18T07:36:14.496Z,100660.69
2022-12-18T07:37:13.962Z,100660.72
2022-12-18T07:38:14.100Z,100662.44
2022-12-18T07:39:14.213Z,100662.05
2022-12-18T07:40:14.268Z,100666.34
2022-12-18T07:41:14.388Z,100670.42
2022-12-18T07:42:14.006Z,100667.14
2022-12-18T07:43:14.047Z,100659.7
2022-12-18T07:44:14.214Z,100664.3
2022-12-18T07:45:14.120Z,100659.31
2022-12-18T07:46:14.931Z,100666.42
2022-12-18T07:47:14.107Z,100662.06
2022-12-18T07:48:14.125Z,100663.91
2022-12-18T07:49:14.126Z,100666.02
2022-12-18T07:50:14.227Z,100660.34
2022-12-18T07:51:14.159Z,100661.14
2022-12-18T07:52:14.185Z,100662.22
2022-12-18T07:53:14.209Z,100662.5
2022-12-18T07:54:14.401Z,100663.26
2022-12-18T07:55:14.381Z,100666.64
2022-12-18T07:56:31.261Z,100663.8
2022-12-18T07:57:41.891Z,100659.91
2022-12-18T07:58:19.559Z,100661.38
2022-12-18T07:59:19.601Z,100662.7
2022-12-18T08:00:19.709Z,100668.77
2022-12-18T08:01:20.259Z,100661.09
2022-12-18T08:02:20.309Z,100669.73
2022-12-18T08:03:20.174Z,100664.7
2022-12-18T08:04:20.111Z,100665.66
2022-12-18T08:05:20.358Z,100668.38
2022-12-18T08:06:23.819Z,100666.85
2022-12-18T08:07:20.630Z,100661.92
2022-12-18T08:08:20.624Z,100665.39
2022-12-18T08:09:20.780Z,100666.78
2022-12-18T08:10:21.016Z,100666.45
2022-12-18T08:11:20.721Z,100670.57
2022-12-18T08:12:20.677Z,100669.45
2022-12-18T08:13:20.728Z,100670.02
2022-12-18T08:14:20.738Z,100669.63
2022-12-18T08:15:20.736Z,100672.17
2022-12-18T08:16:21.266Z,100670.48
2022-12-18T08:17:20.915Z,100669.45
2022-12-18T08:18:20.776Z,100666.69
2022-12-18T08:19:20.775Z,100670.52
2022-12-18T08:20:20.841Z,100669.34
2022-12-18T08:21:22.191Z,100671.34
2022-12-18T08:22:20.848Z,100673.45
2022-12-18T08:23:20.848Z,100669.35
2022-12-18T08:24:20.855Z,100670.38
2022-12-18T08:25:20.874Z,100670.83
2022-12-18T08:26:21.085Z,100663.46
2022-12-18T08:27:29.385Z,100660.56
2022-12-18T08:28:21.042Z,100662.95
2022-12-18T08:29:21.762Z,100666.27
2022-12-18T08:30:21.076Z,100664.53
2022-12-18T08:31:21.236Z,100664.36
2022-12-18T08:32:21.326Z,100663.67
2022-12-18T08:33:21.364Z,100667.66
2022-12-18T08:34:21.340Z,100665.33
2022-12-18T08:35:21.405Z,100667.8
2022-12-18T08:36:21.562Z,100671.23
2022-12-18T08:37:21.495Z,100674.02
2022-12-18T08:38:21.707Z,100680.2
2022-12-18T08:39:21.495Z,100674.79
2022-12-18T08:40:21.575Z,100677.45
2022-12-18T08:41:21.878Z,100679.3
2022-12-18T08:42:21.609Z,100677.18
2022-12-18T08:43:21.610Z,100672.88
2022-12-18T08:44:21.619Z,100678.36
2022-12-18T08:45:21.772Z,100673.95
2022-12-18T08:46:23.088Z,100676.19
2022-12-18T08:47:21.823Z,100671.47
2022-12-18T08:48:22.497Z,100672.34
2022-12-18T08:49:21.891Z,100673.64
2022-12-18T08:50:22.035Z,100678.78
2022-12-18T08:51:22.211Z,100673.19
2022-12-18T08:52:22.136Z,100677.36
2022-12-18T08:53:22.239Z,100673.98
2022-12-18T08:54:22.288Z,100675.61
2022-12-18T08:55:22.343Z,100675.73
2022-12-18T08:56:22.446Z,100673.91
2022-12-18T08:57:22.627Z,100673.66
2022-12-18T08:58:22.737Z,100673.28
2022-12-18T08:59:22.905Z,100674.05
2022-12-18T09:00:22.957Z,100674.17
2022-12-18T09:01:23.513Z,100666.09
2022-12-18T09:02:23.334Z,100666.02
2022-12-18T09:03:23.051Z,100669.02
2022-12-18T09:04:23.343Z,100670.65
2022-12-18T09:05:23.162Z,100667.75
2022-12-18T09:06:23.803Z,100665.26
2022-12-18T09:07:23.155Z,100666.62
2022-12-18T09:08:23.457Z,100662.91
2022-12-18T09:09:23.383Z,100664.25
2022-12-18T09:10:23.547Z,100669.14
2022-12-18T09:11:25.055Z,100666.62
2022-12-18T09:12:23.541Z,100669.68
2022-12-18T09:13:23.532Z,100667.34
2022-12-18T09:14:23.617Z,100662.31
2022-12-18T09:15:23.966Z,100661.89
2022-12-18T09:16:30.166Z,100659.45
2022-12-18T09:17:27.969Z,100654.53
2022-12-18T09:18:28.063Z,100651.97
2022-12-18T09:19:28.261Z,100650.58
2022-12-18T09:20:28.318Z,100651.91
2022-12-18T09:21:29.720Z,100657.08
2022-12-18T09:22:28.331Z,100654.78
2022-12-18T09:23:28.306Z,100657.25
2022-12-18T09:24:28.348Z,100649.33
2022-12-18T09:25:29.593Z,100652.62
2022-12-18T09:26:28.470Z,100653
2022-12-18T09:27:28.654Z,100655.47
2022-12-18T09:28:28.579Z,100656.4
2022-12-18T09:29:28.636Z,100650.06
2022-12-18T09:30:28.733Z,100651.38
2022-12-18T09:31:28.771Z,100653.02
2022-12-18T09:32:28.747Z,100650.39
2022-12-18T09:33:28.767Z,100654.02
2022-12-18T09:34:28.818Z,100657.4
2022-12-18T09:35:28.837Z,100648.38
2022-12-18T09:36:28.985Z,100658.16
2022-12-18T09:37:28.980Z,100651.98
2022-12-18T09:38:28.982Z,100656.2
2022-12-18T09:39:28.974Z,100651.95
2022-12-18T09:40:33.413Z,100648.25
2022-12-18T09:42:34.642Z,100652.38
2022-12-18T09:44:44.936Z,100649.38
2022-12-18T09:45:43.269Z,100653.14
2022-12-18T09:46:44.997Z,100650.38
2022-12-18T09:47:43.990Z,100653.56
2022-12-18T09:48:44.614Z,100655.55
2022-12-18T09:49:43.258Z,100650.41
2022-12-18T09:50:41.854Z,100652.81
2022-12-18T09:51:47.869Z,100655.12
2022-12-18T09:52:50.194Z,100653.47
2022-12-18T09:53:51.091Z,100651.27
2022-12-18T09:55:53.318Z,100652.64
2022-12-18T09:56:52.408Z,100652.83
2022-12-18T09:57:56.659Z,100654.91
2022-12-18T09:58:58.650Z,100647.84
2022-12-18T10:00:01.241Z,100645.23
2022-12-18T10:00:57.862Z,100651.59
2022-12-18T10:01:58.042Z,100651.53
2022-12-18T10:03:01.895Z,100653.06
2022-12-18T10:03:58.485Z,100654.05
2022-12-18T10:05:06.383Z,100647.67
2022-12-18T10:06:08.656Z,100652.16
2022-12-18T10:07:10.079Z,100653.77
2022-12-18T10:12:31.804Z,100644.61
2022-12-18T10:16:38.676Z,100649.98
2022-12-18T10:20:49.717Z,100651.45
2022-12-18T10:23:58.619Z,100647.47
2022-12-18T10:24:59.202Z,100645.2
2022-12-18T10:26:54.058Z,100645.95
2022-12-18T10:27:58.255Z,100645.7
2022-12-18T10:28:55.174Z,100646.42
2022-12-18T10:29:55.005Z,100647.9
2022-12-18T10:30:54.622Z,100647.09
2022-12-18T10:31:54.563Z,100653.19
2022-12-18T10:32:54.691Z,100651.45
2022-12-18T10:33:55.191Z,100651.16
2022-12-18T10:35:00.078Z,100653.77
2022-12-18T10:35:57.009Z,100651.12
2022-12-18T10:36:57.117Z,100651.22
2022-12-18T10:38:01.038Z,100653.53
2022-12-18T10:41:05.237Z,100652.5
2022-12-18T10:43:13.340Z,100649.16
2022-12-18T10:48:19.605Z,100639.48
2022-12-18T10:50:46.821Z,100646.04
2022-12-18T10:52:26.261Z,100636.52
2022-12-18T10:53:26.210Z,100639.36
2022-12-18T10:54:24.774Z,100637.89
2022-12-18T10:55:25.286Z,100636.08
2022-12-18T10:56:28.866Z,100637.39
2022-12-18T10:58:39.768Z,100635.3
2022-12-18T11:00:31.545Z,100631.3
2022-12-18T11:02:37.356Z,100629.67
2022-12-18T11:03:38.755Z,100628.02
2022-12-18T11:04:35.077Z,100636.94
2022-12-18T11:05:35.465Z,100636.91
2022-12-18T11:06:35.123Z,100631.88
2022-12-18T11:08:43.683Z,100637.82
2022-12-18T11:12:45.612Z,100627.87
2022-12-18T11:14:50.482Z,100629.13
2022-12-18T11:15:49.415Z,100630.05
2022-12-18T11:17:16.898Z,100631.02
2022-12-18T11:17:51.628Z,100629.95
2022-12-18T11:18:51.027Z,100630.76
2022-12-18T11:21:58.620Z,100633.31
2022-12-18T11:23:00.284Z,100633.45
2022-12-18T11:23:58.443Z,100636.35
2022-12-18T11:26:05.101Z,100626.09
2022-12-18T11:27:02.922Z,100626.73
2022-12-18T11:28:03.108Z,100631.22
2022-12-18T11:33:22.692Z,100633.79
2022-12-18T11:35:27.197Z,100634.62
2022-12-18T11:36:22.621Z,100637.17
2022-12-18T11:37:20.435Z,100632.87
2022-12-18T11:38:23.891Z,100637.45
2022-12-18T11:40:23.343Z,100638.55
2022-12-18T11:42:39.452Z,100642.09
2022-12-18T11:48:43.384Z,100644.86
2022-12-18T11:49:42.019Z,100637.38
2022-12-18T11:52:45.764Z,100634.36
2022-12-18T11:53:45.776Z,100638.94
2022-12-18T11:54:45.837Z,100637.38
2022-12-18T11:56:48.833Z,100633.25
2022-12-18T12:00:01.886Z,100634.95
2022-12-18T12:07:22.096Z,100623.53
2022-12-18T12:13:33.112Z,100634.06
2022-12-18T12:21:42.321Z,100624.29
2022-12-18T12:25:54.325Z,100628.73
2022-12-18T12:38:32.802Z,100645.47
2022-12-18T12:39:36.197Z,100634.62
2022-12-18T12:40:52.430Z,100646.4
2022-12-18T12:41:34.471Z,100642.11
2022-12-18T12:44:39.118Z,100648.74
2022-12-18T12:46:42.421Z,100640.25
2022-12-18T12:47:42.398Z,100646.81
2022-12-18T12:48:48.727Z,100640.9
2022-12-18T12:49:46.095Z,100646.08
2022-12-18T12:50:46.069Z,100652.69
2022-12-18T12:51:54.273Z,100645.23
2022-12-18T12:52:48.597Z,100645.62
2022-12-18T12:53:46.841Z,100643.4
2022-12-18T12:54:47.727Z,100647.08
2022-12-18T12:55:46.621Z,100641.77
2022-12-18T12:56:52.796Z,100648.6
2022-12-18T12:58:56.426Z,100639.81
2022-12-18T13:00:58.096Z,100649.3
2022-12-18T13:06:09.404Z,100647.27
2022-12-18T13:08:11.143Z,100641.75
2022-12-18T13:09:10.286Z,100650.67
2022-12-18T13:12:12.450Z,100637.93
2022-12-18T13:13:47.039Z,100647.53
2022-12-18T13:15:13.834Z,100648.86
2022-12-18T13:16:12.489Z,100647.04
2022-12-18T13:17:16.497Z,100646.86
2022-12-18T13:18:15.194Z,100645.02
2022-12-18T13:20:16.996Z,100648.91
2022-12-18T13:21:21.866Z,100651
2022-12-18T13:22:22.543Z,100649.8
2022-12-18T13:26:31.225Z,100647.92
2022-12-18T13:32:42.576Z,100648.72
2022-12-18T13:34:16.613Z,100649.55
2022-12-18T13:34:45.164Z,100648.12
2022-12-18T13:36:49.805Z,100641.11
2022-12-18T13:37:52.882Z,100643.06
2022-12-18T13:39:50.464Z,100640.71
2022-12-18T13:41:53.052Z,100641.13
2022-12-18T13:42:51.505Z,100635.04
2022-12-18T13:43:53.309Z,100633.64
2022-12-18T13:44:51.509Z,100633.03
2022-12-18T13:46:55.126Z,100631.31
2022-12-18T13:47:55.035Z,100634.83
2022-12-18T13:48:56.704Z,100631.7
2022-12-18T13:49:55.639Z,100632.76
2022-12-18T13:50:58.337Z,100629.59
2022-12-18T13:51:56.125Z,100628.96
2022-12-18T13:52:55.262Z,100629.23
2022-12-18T13:53:57.679Z,100632.43
2022-12-18T13:54:56.509Z,100627.22
2022-12-18T13:55:55.502Z,100631.7
2022-12-18T13:56:55.211Z,100634.2
2022-12-18T13:58:05.048Z,100629.97
2022-12-18T13:59:07.767Z,100627.39
2022-12-18T14:00:13.221Z,100630.15
2022-12-18T14:01:00.468Z,100626.3
2022-12-18T14:02:13.610Z,100635.54
2022-12-18T14:03:01.488Z,100635.87
2022-12-18T14:04:10.637Z,100633